createdAt,value
2018-08-19T00:00:18.650Z,99.90
2018-08-19T00:02:46.784Z,99.90
2018-08-19T00:05:16.117Z,99.90
2018-08-19T00:07:44.182Z,99.90
2018-08-19T00:10:12.320Z,99.90
2018-08-19T00:12:43.157Z,99.90
2018-08-19T00:15:11.321Z,99.90
2018-08-19T00:17:39.417Z,99.90
2018-08-19T00:20:08.411Z,99.90
2018-08-19T00:22:36.454Z,99.90
2018-08-19T00:25:04.527Z,99.90
2018-08-19T00:27:34.243Z,99.90
2018-08-19T00:30:02.292Z,99.90
2018-08-19T00:32:30.329Z,99.90
2018-08-19T00:34:58.389Z,99.90
2018-08-19T00:37:26.418Z,99.90
2018-08-19T00:39:58.826Z,99.90
2018-08-19T00:42:26.933Z,99.90
2018-08-19T00:44:55.115Z,99.90
2018-08-19T00:47:23.162Z,99.90
2018-08-19T00:49:55.572Z,99.90
2018-08-19T00:52:23.604Z,99.90
2018-08-19T00:54:51.703Z,99.90
2018-08-19T00:57:19.776Z,99.90
2018-08-19T00:59:47.861Z,99.90
2018-08-19T01:02:15.921Z,99.90
2018-08-19T01:04:43.986Z,99.90
2018-08-19T01:07:12.018Z,99.90
2018-08-19T01:09:40.061Z,99.90
2018-08-19T01:12:08.132Z,99.90
2018-08-19T01:14:36.352Z,99.90
2018-08-19T01:17:04.413Z,99.90
2018-08-19T01:19:32.496Z,99.90
2018-08-19T01:22:00.529Z,99.90
2018-08-19T01:24:28.634Z,99.90
2018-08-19T01:26:56.741Z,99.90
2018-08-19T01:29:31.735Z,99.90
2018-08-19T01:32:04.294Z,99.90
2018-08-19T01:34:32.333Z,99.90
2018-08-19T01:37:00.983Z,99.90
2018-08-19T01:39:29.013Z,99.90
2018-08-19T01:41:57.137Z,99.90
2018-08-19T01:44:25.156Z,99.90
2018-08-19T01:46:53.275Z,99.90
2018-08-19T01:49:21.375Z,99.90
2018-08-19T01:51:49.421Z,99.90
2018-08-19T01:54:20.366Z,99.90
2018-08-19T01:56:56.932Z,99.90
2018-08-19T01:59:27.493Z,99.90
2018-08-19T02:01:56.824Z,99.90
2018-08-19T02:04:24.971Z,99.90
2018-08-19T02:06:52.985Z,99.90
2018-08-19T02:09:21.497Z,99.90
2018-08-19T02:11:51.126Z,99.90
2018-08-19T02:14:19.930Z,99.90
2018-08-19T02:16:48.681Z,99.90
2018-08-19T02:19:16.888Z,99.90
2018-08-19T02:21:45.645Z,99.90
2018-08-19T02:24:14.124Z,99.90
2018-08-19T02:26:42.174Z,99.90
2018-08-19T02:29:20.350Z,99.90
2018-08-19T02:31:48.438Z,99.90
2018-08-19T02:34:19.644Z,99.90
2018-08-19T02:36:47.697Z,99.90
2018-08-19T02:39:15.762Z,99.90
2018-08-19T02:41:48.225Z,99.90
2018-08-19T02:44:16.261Z,99.90
2018-08-19T02:46:44.401Z,99.90
2018-08-19T02:49:12.661Z,99.90
2018-08-19T02:51:40.750Z,99.90
2018-08-19T02:54:08.835Z,99.90
2018-08-19T02:56:36.859Z,99.90
2018-08-19T02:59:04.985Z,99.90
2018-08-19T03:01:33.017Z,99.90
2018-08-19T03:04:01.060Z,99.90
2018-08-19T03:06:29.109Z,99.90
2018-08-19T03:08:58.202Z,99.90
2018-08-19T03:11:26.479Z,99.90
2018-08-19T03:13:54.640Z,99.90
2018-08-19T03:16:22.790Z,99.90
2018-08-19T03:18:51.493Z,99.90
2018-08-19T03:21:20.355Z,99.90
2018-08-19T03:23:48.657Z,99.90
2018-08-19T03:26:16.962Z,99.90
2018-08-19T03:28:45.024Z,99.90
2018-08-19T03:31:13.049Z,99.90
2018-08-19T03:33:41.149Z,99.90
2018-08-19T03:36:09.336Z,99.90
2018-08-19T03:38:37.374Z,99.90
2018-08-19T03:41:05.462Z,99.90
2018-08-19T03:43:33.502Z,99.90
2018-08-19T03:46:07.213Z,99.90
2018-08-19T03:48:35.309Z,99.90
2018-08-19T03:51:03.337Z,99.90
2018-08-19T03:53:31.455Z,99.90
2018-08-19T03:55:59.478Z,99.90
2018-08-19T03:58:27.517Z,99.90
2018-08-19T04:00:55.545Z,99.90
2018-08-19T04:03:24.995Z,99.90
2018-08-19T04:05:54.604Z,99.90
2018-08-19T04:08:25.663Z,99.90
2018-08-19T04:10:53.689Z,99.90
2018-08-19T04:13:32.437Z,99.90
2018-08-19T04:16:01.522Z,99.90
2018-08-19T04:18:35.572Z,99.90
2018-08-19T04:21:05.059Z,99.90
2018-08-19T04:23:33.456Z,99.90
2018-08-19T04:26:02.006Z,99.90
2018-08-19T04:28:30.096Z,99.90
2018-08-19T04:30:58.142Z,99.90
2018-08-19T04:33:32.309Z,99.90
2018-08-19T04:36:01.074Z,99.90
2018-08-19T04:38:30.341Z,99.90
2018-08-19T04:40:58.441Z,99.90
2018-08-19T04:43:27.449Z,99.90
2018-08-19T04:45:55.594Z,99.90
2018-08-19T04:48:25.789Z,99.90
2018-08-19T04:50:55.321Z,99.90
2018-08-19T04:53:23.399Z,99.90
2018-08-19T04:55:51.997Z,99.90
2018-08-19T04:58:20.197Z,99.90
2018-08-19T05:00:49.305Z,99.90
2018-08-19T05:03:17.410Z,99.90
2018-08-19T05:05:46.206Z,99.90
2018-08-19T05:08:14.634Z,99.90
2018-08-19T05:10:42.921Z,99.90
2018-08-19T05:13:11.746Z,99.90
2018-08-19T05:15:41.213Z,99.90
2018-08-19T05:18:10.245Z,99.90
2018-08-19T05:20:38.473Z,99.90
2018-08-19T05:23:06.969Z,99.90
2018-08-19T05:25:40.861Z,99.90
2018-08-19T05:28:08.914Z,99.90
2018-08-19T05:30:36.948Z,99.90
2018-08-19T05:33:05.576Z,99.90
2018-08-19T05:35:34.485Z,99.90
2018-08-19T05:38:03.455Z,99.90
2018-08-19T05:40:32.064Z,99.90
2018-08-19T05:43:00.197Z,99.90
2018-08-19T05:45:28.234Z,99.90
2018-08-19T05:48:02.338Z,99.90
2018-08-19T05:50:30.373Z,99.90
2018-08-19T05:52:58.416Z,99.90
2018-08-19T05:55:26.473Z,99.90
2018-08-19T05:57:54.596Z,99.90
2018-08-19T06:00:23.910Z,99.90
2018-08-19T06:02:52.355Z,99.90
2018-08-19T06:05:20.686Z,99.90
2018-08-19T06:07:50.375Z,99.90
2018-08-19T06:10:18.631Z,99.90
2018-08-19T06:12:46.680Z,99.90
2018-08-19T06:15:14.728Z,99.90
2018-08-19T06:17:42.815Z,99.90
2018-08-19T06:20:10.911Z,99.90
2018-08-19T06:22:40.893Z,99.90
2018-08-19T06:25:09.740Z,99.90
2018-08-19T06:27:50.583Z,99.90
2018-08-19T06:30:19.507Z,99.90
2018-08-19T06:32:47.650Z,99.90
2018-08-19T06:35:15.682Z,99.90
2018-08-19T06:37:43.772Z,99.90
2018-08-19T06:40:12.856Z,99.90
2018-08-19T06:42:40.937Z,99.90
2018-08-19T06:45:09.498Z,99.90
2018-08-19T06:47:37.558Z,99.90
2018-08-19T06:50:15.319Z,99.90
2018-08-19T06:52:43.426Z,99.90
2018-08-19T06:55:12.831Z,99.90
2018-08-19T06:57:41.149Z,99.90
2018-08-19T07:00:13.584Z,99.90
2018-08-19T07:02:41.637Z,99.90
2018-08-19T07:05:09.671Z,99.90
2018-08-19T07:07:37.806Z,99.90
2018-08-19T07:10:06.209Z,99.90
2018-08-19T07:12:34.280Z,99.90
2018-08-19T07:15:02.328Z,99.90
2018-08-19T07:17:30.402Z,99.90
2018-08-19T07:19:58.454Z,99.90
2018-08-19T07:22:26.533Z,99.90
2018-08-19T07:24:54.619Z,99.90
2018-08-19T07:27:22.696Z,99.90
2018-08-19T07:29:50.734Z,99.90
2018-08-19T07:32:18.837Z,99.90
2018-08-19T07:34:46.898Z,99.90
2018-08-19T07:37:15.150Z,99.90
2018-08-19T07:39:48.718Z,99.90
2018-08-19T07:42:16.787Z,99.90
2018-08-19T07:44:44.808Z,99.90
2018-08-19T07:47:12.871Z,99.80
2018-08-19T07:49:40.977Z,99.80
2018-08-19T07:52:09.007Z,99.50
2018-08-19T07:54:37.128Z,99.80
2018-08-19T07:57:12.059Z,97.00
2018-08-19T07:59:40.393Z,96.90
2018-08-19T08:02:08.420Z,97.50
2018-08-19T08:04:42.860Z,97.30
2018-08-19T08:07:11.626Z,96.30
2018-08-19T08:09:40.340Z,94.00
2018-08-19T08:12:08.801Z,94.20
2018-08-19T08:14:38.016Z,94.10
2018-08-19T08:17:07.300Z,93.40
2018-08-19T08:19:35.564Z,93.30
2018-08-19T08:22:09.137Z,92.00
2018-08-19T08:24:38.930Z,92.30
2018-08-19T08:27:07.055Z,90.70
2018-08-19T08:29:35.107Z,90.60
2018-08-19T08:32:03.413Z,91.50
2018-08-19T08:34:31.498Z,90.10
2018-08-19T08:37:01.888Z,90.10
2018-08-19T08:39:30.773Z,89.40
2018-08-19T08:41:59.333Z,87.90
2018-08-19T08:44:28.026Z,85.40
2018-08-19T08:46:58.975Z,85.20
2018-08-19T08:49:27.013Z,85.90
2018-08-19T08:51:55.036Z,87.00
2018-08-19T08:54:23.209Z,85.80
2018-08-19T08:56:51.204Z,84.90
2018-08-19T08:59:19.253Z,84.40
2018-08-19T09:01:47.309Z,85.50
2018-08-19T09:04:15.468Z,85.10
2018-08-19T09:06:43.538Z,83.80
2018-08-19T09:09:11.599Z,83.10
2018-08-19T09:11:39.665Z,83.20
2018-08-19T09:14:07.720Z,80.30
2018-08-19T09:16:35.814Z,80.50
2018-08-19T09:19:03.877Z,80.40
2018-08-19T09:21:31.909Z,79.80
2018-08-19T09:24:00.066Z,78.90
2018-08-19T09:26:28.118Z,78.90
2018-08-19T09:28:56.205Z,77.90
2018-08-19T09:31:24.239Z,78.80
2018-08-19T09:33:52.366Z,76.60
2018-08-19T09:36:20.446Z,76.20
2018-08-19T09:38:48.479Z,76.50
2018-08-19T09:41:16.546Z,73.90
2018-08-19T09:43:44.594Z,73.50
2018-08-19T09:46:12.658Z,73.30
2018-08-19T09:48:40.768Z,74.30
2018-08-19T09:51:15.082Z,73.90
2018-08-19T09:53:43.125Z,71.90
2018-08-19T09:56:11.546Z,72.70
2018-08-19T09:58:40.102Z,73.30
2018-08-19T10:01:14.140Z,72.90
2018-08-19T10:03:42.193Z,71.10
2018-08-19T10:06:10.240Z,70.50
2018-08-19T10:08:38.280Z,70.90
2018-08-19T10:11:07.456Z,69.60
2018-08-19T10:13:35.660Z,69.70
2018-08-19T10:16:03.664Z,68.20
2018-08-19T10:18:31.697Z,66.30
2018-08-19T10:21:03.826Z,66.50
2018-08-19T10:23:31.858Z,65.20
2018-08-19T10:25:59.954Z,64.50
2018-08-19T10:28:27.976Z,64.80
2018-08-19T10:30:57.624Z,65.20
2018-08-19T10:33:25.668Z,62.20
2018-08-19T10:35:57.054Z,62.60
2018-08-19T10:38:25.118Z,62.40
2018-08-19T10:41:03.545Z,62.10
2018-08-19T10:43:31.600Z,60.80
2018-08-19T10:45:59.638Z,61.40
2018-08-19T10:48:27.664Z,61.00
2018-08-19T10:50:55.835Z,61.60
2018-08-19T10:53:28.181Z,61.80
2018-08-19T10:55:57.020Z,61.10
2018-08-19T10:58:25.068Z,60.80
2018-08-19T11:00:53.134Z,60.40
2018-08-19T11:03:21.181Z,60.70
2018-08-19T11:05:51.870Z,60.40
2018-08-19T11:08:19.903Z,59.60
2018-08-19T11:10:47.994Z,60.40
2018-08-19T11:13:17.752Z,59.80
2018-08-19T11:15:50.225Z,59.50
2018-08-19T11:18:23.100Z,59.80
2018-08-19T11:20:52.972Z,58.00
2018-08-19T11:23:22.078Z,58.10
2018-08-19T11:25:50.483Z,58.30
2018-08-19T11:28:24.352Z,57.00
2018-08-19T11:30:52.410Z,57.80
2018-08-19T11:33:26.337Z,57.80
2018-08-19T11:35:54.444Z,57.40
2018-08-19T11:38:22.462Z,57.30
2018-08-19T11:40:50.553Z,56.20
2018-08-19T11:43:18.633Z,55.70
2018-08-19T11:45:46.633Z,56.00
2018-08-19T11:48:15.225Z,56.40
2018-08-19T11:50:43.252Z,54.90
2018-08-19T11:53:11.323Z,56.40
2018-08-19T11:55:39.519Z,55.40
2018-08-19T11:58:07.598Z,55.90
2018-08-19T12:00:42.297Z,54.30
2018-08-19T12:03:10.376Z,53.30
2018-08-19T12:05:38.430Z,53.30
2018-08-19T12:08:06.826Z,53.50
2018-08-19T12:10:34.858Z,52.90
2018-08-19T12:13:02.962Z,53.20
2018-08-19T12:15:31.048Z,52.60
2018-08-19T12:17:59.105Z,52.60
2018-08-19T12:20:33.073Z,53.10
2018-08-19T12:23:01.112Z,52.00
2018-08-19T12:25:29.412Z,50.80
2018-08-19T12:27:57.445Z,50.00
2018-08-19T12:30:25.500Z,50.20
2018-08-19T12:32:58.099Z,49.00
2018-08-19T12:35:26.158Z,49.10
2018-08-19T12:37:54.245Z,48.80
2018-08-19T12:40:22.282Z,48.00
2018-08-19T12:42:53.480Z,46.70
2018-08-19T12:45:22.390Z,47.00
2018-08-19T12:47:50.446Z,44.90
2018-08-19T12:50:18.534Z,43.40
2018-08-19T12:52:46.550Z,40.80
2018-08-19T12:55:14.971Z,39.30
2018-08-19T12:57:43.450Z,38.90
2018-08-19T13:00:26.146Z,36.60
2018-08-19T13:02:54.383Z,35.80
2018-08-19T13:05:22.835Z,34.30
2018-08-19T13:07:51.112Z,32.50
2018-08-19T13:10:19.360Z,32.40
2018-08-19T13:12:55.665Z,31.10
2018-08-19T13:15:24.735Z,31.70
2018-08-19T13:17:52.913Z,33.30
2018-08-19T13:20:21.016Z,31.60
2018-08-19T13:22:54.610Z,30.00
2018-08-19T13:25:23.774Z,29.80
2018-08-19T13:27:51.929Z,29.80
2018-08-19T13:30:20.733Z,28.90
2018-08-19T13:32:49.463Z,28.10
2018-08-19T13:35:17.905Z,28.20
2018-08-19T13:37:46.002Z,28.40
2018-08-19T13:40:14.462Z,27.40
2018-08-19T13:42:42.861Z,27.00
2018-08-19T13:45:13.599Z,27.20
2018-08-19T13:47:42.558Z,27.10
2018-08-19T13:50:10.758Z,27.10
2018-08-19T13:52:39.210Z,27.50
2018-08-19T13:55:07.954Z,27.50
2018-08-19T13:57:36.020Z,27.80
2018-08-19T14:00:05.096Z,27.30
2018-08-19T14:02:33.272Z,27.50
2018-08-19T14:05:01.285Z,27.10
2018-08-19T14:07:29.315Z,27.40
2018-08-19T14:09:57.489Z,27.70
2018-08-19T14:12:25.631Z,27.40
2018-08-19T14:14:53.701Z,27.00
2018-08-19T14:17:21.773Z,27.30
2018-08-19T14:19:49.823Z,27.60
2018-08-19T14:22:17.863Z,27.80
2018-08-19T14:24:45.938Z,27.70
2018-08-19T14:27:13.957Z,27.30
2018-08-19T14:29:42.070Z,27.80
2018-08-19T14:32:21.505Z,27.60
2018-08-19T14:34:49.545Z,27.60
2018-08-19T14:37:17.597Z,27.60
2018-08-19T14:39:45.664Z,28.00
2018-08-19T14:42:13.735Z,27.30
2018-08-19T14:44:41.836Z,27.00
2018-08-19T14:47:09.882Z,27.00
2018-08-19T14:49:38.096Z,27.00
2018-08-19T14:52:06.137Z,27.60
2018-08-19T14:54:34.224Z,26.80
2018-08-19T14:57:02.260Z,26.50
2018-08-19T14:59:30.307Z,25.90
2018-08-19T15:01:58.349Z,26.20
2018-08-19T15:04:26.443Z,26.30
2018-08-19T15:06:54.481Z,26.90
2018-08-19T15:09:28.126Z,27.90
2018-08-19T15:11:59.886Z,28.00
2018-08-19T15:14:28.056Z,28.00
2018-08-19T15:16:56.076Z,28.40
2018-08-19T15:19:24.125Z,28.60
2018-08-19T15:21:54.581Z,27.50
2018-08-19T15:24:22.896Z,27.20
2018-08-19T15:26:51.904Z,27.40
2018-08-19T15:29:25.369Z,27.50
2018-08-19T15:31:53.700Z,27.70
2018-08-19T15:34:21.706Z,27.40
2018-08-19T15:36:50.199Z,27.60
2018-08-19T15:39:18.259Z,27.70
2018-08-19T15:41:46.738Z,28.00
2018-08-19T15:44:14.785Z,27.50
2018-08-19T15:46:43.481Z,27.80
2018-08-19T15:49:11.538Z,28.50
2018-08-19T15:51:39.850Z,29.40
2018-08-19T15:54:08.728Z,29.20
2018-08-19T15:56:36.925Z,28.50
2018-08-19T15:59:06.554Z,28.00
2018-08-19T16:01:35.036Z,27.70
2018-08-19T16:04:09.069Z,27.60
2018-08-19T16:06:37.122Z,27.20
2018-08-19T16:09:06.690Z,27.90
2018-08-19T16:11:34.801Z,28.10
2018-08-19T16:14:04.211Z,28.30
2018-08-19T16:16:32.353Z,28.30
2018-08-19T16:19:00.492Z,28.40
2018-08-19T16:21:28.504Z,27.80
2018-08-19T16:23:56.610Z,28.10
2018-08-19T16:26:24.676Z,28.00
2018-08-19T16:28:52.751Z,28.40
2018-08-19T16:31:20.826Z,29.30
2018-08-19T16:33:48.920Z,28.90
2018-08-19T16:36:16.910Z,29.20
2018-08-19T16:38:44.952Z,29.50
2018-08-19T16:41:13.094Z,29.60
2018-08-19T16:43:41.154Z,28.90
2018-08-19T16:46:09.252Z,29.20
2018-08-19T16:48:37.413Z,29.10
2018-08-19T16:51:05.580Z,29.30
2018-08-19T16:53:33.726Z,29.90
2018-08-19T16:56:01.766Z,29.90
2018-08-19T16:58:29.817Z,29.30
2018-08-19T17:00:57.895Z,29.30
2018-08-19T17:03:29.150Z,29.80
2018-08-19T17:05:57.243Z,30.10
2018-08-19T17:08:25.385Z,30.40
2018-08-19T17:10:53.466Z,30.30
2018-08-19T17:13:21.512Z,31.70
2018-08-19T17:15:49.634Z,32.80
2018-08-19T17:18:17.798Z,32.30
2018-08-19T17:20:45.861Z,32.10
2018-08-19T17:23:15.469Z,31.50
2018-08-19T17:25:43.709Z,31.90
2018-08-19T17:28:16.115Z,31.90
2018-08-19T17:30:44.197Z,31.90
2018-08-19T17:33:12.322Z,32.40
2018-08-19T17:35:42.515Z,33.20
2018-08-19T17:38:10.661Z,33.70
2018-08-19T17:40:38.703Z,33.60
2018-08-19T17:43:06.812Z,34.30
2018-08-19T17:45:35.003Z,34.90
2018-08-19T17:48:03.077Z,34.80
2018-08-19T17:50:31.235Z,35.00
2018-08-19T17:53:01.487Z,35.50
2018-08-19T17:55:29.618Z,36.10
2018-08-19T17:57:58.862Z,36.30
2018-08-19T18:00:27.007Z,36.80
2018-08-19T18:02:55.132Z,37.20
2018-08-19T18:05:23.183Z,37.60
2018-08-19T18:07:52.486Z,38.10
2018-08-19T18:10:20.609Z,38.30
2018-08-19T18:12:49.037Z,39.10
2018-08-19T18:15:17.117Z,40.10
2018-08-19T18:17:46.658Z,40.70
2018-08-19T18:20:30.742Z,42.10
2018-08-19T18:22:58.890Z,41.30
2018-08-19T18:25:26.958Z,41.90
2018-08-19T18:27:54.980Z,42.50
2018-08-19T18:30:24.557Z,42.80
2018-08-19T18:32:52.740Z,43.40
2018-08-19T18:35:21.853Z,44.30
2018-08-19T18:37:49.989Z,45.00
2018-08-19T18:40:23.645Z,45.00
2018-08-19T18:42:51.882Z,45.30
2018-08-19T18:45:19.945Z,45.80
2018-08-19T18:47:53.490Z,46.00
2018-08-19T18:50:22.734Z,46.20
2018-08-19T18:52:51.114Z,46.50
2018-08-19T18:55:19.363Z,46.70
2018-08-19T18:57:51.357Z,47.20
2018-08-19T19:00:20.090Z,47.60
2018-08-19T19:02:53.157Z,47.90
2018-08-19T19:05:26.884Z,48.90
2018-08-19T19:07:56.797Z,48.60
2018-08-19T19:10:24.956Z,48.90
2018-08-19T19:12:53.023Z,49.20
2018-08-19T19:15:21.535Z,49.40
2018-08-19T19:17:49.688Z,49.60
2018-08-19T19:20:17.769Z,50.30
2018-08-19T19:22:51.483Z,50.20
2018-08-19T19:25:21.013Z,50.30
2018-08-19T19:27:49.050Z,50.40
2018-08-19T19:30:17.702Z,50.80
2018-08-19T19:32:45.730Z,51.20
2018-08-19T19:35:18.462Z,51.50
2018-08-19T19:37:47.278Z,51.80
2018-08-19T19:40:17.522Z,52.00
2018-08-19T19:42:45.755Z,52.40
2018-08-19T19:45:14.078Z,52.70
2018-08-19T19:47:42.198Z,53.10
2018-08-19T19:50:10.415Z,53.60
2018-08-19T19:52:40.501Z,54.10
2018-08-19T19:55:08.561Z,55.00
2018-08-19T19:57:36.637Z,55.70
2018-08-19T20:00:04.696Z,55.80
2018-08-19T20:02:32.811Z,56.10
2018-08-19T20:05:02.938Z,56.80
2018-08-19T20:07:30.984Z,57.80
2018-08-19T20:09:59.073Z,58.40
2018-08-19T20:12:27.124Z,58.50
2018-08-19T20:14:55.156Z,59.40
2018-08-19T20:17:23.327Z,59.70
2018-08-19T20:19:51.568Z,59.60
2018-08-19T20:22:19.857Z,60.20
2018-08-19T20:24:48.869Z,61.30
2018-08-19T20:27:17.505Z,62.60
2018-08-19T20:29:49.074Z,63.70
2018-08-19T20:32:17.216Z,64.00
2018-08-19T20:34:45.361Z,65.80
2018-08-19T20:37:13.604Z,65.00
2018-08-19T20:39:42.150Z,66.50
2018-08-19T20:42:10.230Z,73.30
2018-08-19T20:44:38.725Z,74.70
2018-08-19T20:47:06.898Z,75.90
2018-08-19T20:49:34.964Z,77.90
2018-08-19T20:52:03.034Z,82.80
2018-08-19T20:54:31.107Z,85.30
2018-08-19T20:56:59.285Z,86.90
2018-08-19T20:59:32.715Z,86.60
2018-08-19T21:02:00.849Z,87.30
2018-08-19T21:04:28.891Z,90.30
2018-08-19T21:06:57.233Z,91.70
2018-08-19T21:09:25.299Z,92.80
2018-08-19T21:11:53.348Z,93.40
2018-08-19T21:14:21.578Z,94.00
2018-08-19T21:16:49.693Z,93.30
2018-08-19T21:19:17.764Z,95.30
2018-08-19T21:21:45.798Z,96.10
2018-08-19T21:24:13.943Z,95.00
2018-08-19T21:26:45.393Z,96.50
2018-08-19T21:29:13.436Z,97.10
2018-08-19T21:31:41.506Z,98.10
2018-08-19T21:34:09.534Z,97.10
2018-08-19T21:36:37.653Z,97.40
2018-08-19T21:39:06.259Z,97.00
2018-08-19T21:41:44.621Z,97.90
2018-08-19T21:44:12.729Z,99.40
2018-08-19T21:46:40.804Z,99.90
2018-08-19T21:49:09.107Z,99.00
2018-08-19T21:51:37.257Z,98.20
2018-08-19T21:54:06.185Z,99.50
2018-08-19T21:56:34.221Z,99.90
2018-08-19T21:59:03.357Z,99.90
2018-08-19T22:01:34.838Z,99.90
2018-08-19T22:04:02.932Z,99.90
2018-08-19T22:06:31.012Z,99.90
2018-08-19T22:08:59.085Z,99.90
2018-08-19T22:11:27.170Z,99.90
2018-08-19T22:13:55.223Z,99.90
2018-08-19T22:16:23.331Z,99.90
2018-08-19T22:18:51.365Z,99.90
2018-08-19T22:21:20.807Z,99.90
2018-08-19T22:23:50.078Z,99.90
2018-08-19T22:26:19.277Z,99.90
2018-08-19T22:28:53.301Z,99.90
2018-08-19T22:31:22.643Z,99.90
2018-08-19T22:33:53.794Z,99.90
2018-08-19T22:36:21.940Z,99.90
2018-08-19T22:38:50.638Z,99.90
2018-08-19T22:41:18.839Z,99.90
2018-08-19T22:43:46.979Z,99.90
2018-08-19T22:46:15.310Z,99.90
2018-08-19T22:48:43.820Z,99.90
2018-08-19T22:51:12.918Z,99.90
2018-08-19T22:53:41.113Z,99.90
2018-08-19T22:56:09.163Z,99.90
2018-08-19T22:58:37.668Z,99.90
2018-08-19T23:01:06.047Z,99.90
2018-08-19T23:03:34.118Z,99.90
2018-08-19T23:06:02.190Z,99.90
2018-08-19T23:08:31.393Z,99.90
2018-08-19T23:11:00.491Z,99.90
2018-08-19T23:13:34.617Z,99.90
2018-08-19T23:16:04.868Z,99.90
2018-08-19T23:18:32.936Z,99.90
2018-08-19T23:21:01.259Z,99.90
2018-08-19T23:23:29.912Z,99.90
2018-08-19T23:25:57.921Z,99.90
2018-08-19T23:28:26.462Z,99.90
2018-08-19T23:30:54.705Z,99.90
2018-08-19T23:33:22.892Z,99.90
2018-08-19T23:35:50.942Z,99.90
2018-08-19T23:38:19.031Z,99.90
2018-08-19T23:40:47.234Z,99.90
2018-08-19T23:43:15.946Z,99.90
2018-08-19T23:45:44.179Z,99.90
2018-08-19T23:48:12.242Z,99.90
2018-08-19T23:50:40.586Z,99.90
2018-08-19T23:53:10.054Z,99.90
2018-08-19T23:55:38.490Z,99.90
2018-08-19T23:58:06.681Z,99.90
